• Join FlightAware (Why Join?)
  • Login
  • US Flag 
04:12PM EST


 

Airport Tracker/Info


-or-


 

Live Flight TrackerFlight Track Log ✈ SWA1035 ✈ 23-Apr-2013 ✈ KABQ - KPDX

Flight Track Log - Related Links

Times and Time Zones

All times are in EDT time to prevent confusion due to time zone crossing. See the SWA1035 flight status page for this flight to view local times or setup timezone preferences in your user account.

Time Position Orientation Groundspeed Altitude Reporting Facility
EDT Latitude Longitude Course Direction KTS MPH feet Rate Location/Type
05:27PM 35.0481 -106.5314 81° East 202 232 7,400  Level Albuquerque Center
05:28PM 35.0975 -106.5472 345° North 236 272 9,400 2,160 Climbing Albuquerque Center
05:28PM 35.1075 -106.5533 333° Northwest 229 264 9,900 2,160 Climbing Albuquerque Center
05:29PM 35.1667 -106.6108 322° Northwest 259 298 12,200 2,400 Climbing Albuquerque Center
05:30PM 35.2333 -106.6744 322° Northwest 299 344 14,900 3,120 Climbing Albuquerque Center
05:31PM 35.3142 -106.7536 321° Northwest 312 359 18,700 3,240 Climbing Albuquerque Center
05:32PM 35.3819 -106.8147 324° Northwest 307 353 21,600 2,340 Climbing Albuquerque Center
05:33PM 35.4669 -106.8589 337° Northwest 329 379 23,600 1,620 Climbing Albuquerque Center
05:34PM 35.5617 -106.9069 338° Northwest 358 412 25,000 1,740 Climbing Albuquerque Center
05:35PM 35.6672 -106.9617 337° Northwest 388 447 27,200 2,100 Climbing Albuquerque Center
05:36PM 35.7825 -107.0231 337° Northwest 401 461 29,400 1,740 Climbing Albuquerque Center
05:37PM 35.8847 -107.0747 338° Northwest 409 471 30,800 1,740 Climbing Albuquerque Center
05:38PM 36.0050 -107.1358 338° Northwest 424 488 33,100 1,980 Climbing Albuquerque Center
05:39PM 36.1086 -107.1914 337° Northwest 417 480 35,000 1,860 Climbing Albuquerque Center
05:40PM 36.2219 -107.2500 337° Northwest 401 461 37,000 960 Climbing Albuquerque Center
05:41PM 36.3200 -107.3011 337° Northwest 399 459 37,000  Level Albuquerque Center
05:42PM 36.4414 -107.3642 337° Northwest 418 481 37,000  Level Denver Center
05:43PM 36.5422 -107.4172 337° Northwest 413 475 37,000 120 Level Denver Center
05:45PM 36.6614 -107.4792 337° Northwest 417 480 37,300 480 Climbing Denver Center
05:46PM 36.7633 -107.5339 337° Northwest 419 482 38,000 300 Climbing Denver Center
05:47PM 36.8864 -107.6000 337° Northwest 427 491 38,000  Level Denver Center
05:48PM 36.9922 -107.6550 337° Northwest 431 496 38,000  Level Denver Center
05:49PM 37.0894 -107.7561 320° Northwest 405 466 38,000  Level Denver Center
05:50PM 37.1625 -107.8528 313° West 400 460 38,000  Level Denver Center
05:51PM 37.2358 -107.9514 313° West 403 464 38,000  Level Denver Center
05:52PM 37.3189 -108.0603 314° West 391 450 38,000  Level Denver Center
05:53PM 37.3900 -108.1547 313° West 390 449 38,000  Level Denver Center
05:54PM 37.4739 -108.2667 313° West 393 452 38,000  Level Denver Center
05:55PM 37.5436 -108.3617 313° West 389 448 38,000  Level Denver Center
05:56PM 37.6264 -108.4697 314° West 385 443 38,000  Level Denver Center
05:57PM 37.6961 -108.5642 313° West 386 444 38,000  Level Denver Center
05:58PM 37.7769 -108.6744 313° West 385 443 38,000  Level Denver Center
05:59PM 37.8481 -108.7708 313° West 391 450 38,000  Level Denver Center
06:00PM 37.9294 -108.8789 314° West 382 440 38,000  Level Denver Center
06:01PM 37.9978 -108.9722 313° West 377 434 38,000  Level Denver Center
06:02PM 38.0767 -109.0811 313° West 381 438 38,000  Level Denver Center
06:03PM 38.1456 -109.1744 313° West 381 438 38,000  Level Denver Center
06:04PM 38.2283 -109.2886 313° West 389 448 38,000  Level Denver Center
06:05PM 38.2983 -109.3842 313° West 386 444 38,000  Level Denver Center
06:06PM 38.3800 -109.4983 312° West 388 447 38,000  Level Denver Center
06:07PM 38.4508 -109.5956 313° West 391 450 38,000  Level Denver Center
06:08PM 38.5314 -109.7089 312° West 388 447 38,000  Level Denver Center
06:09PM 38.6011 -109.8053 313° West 385 443 38,000  Level Denver Center
06:10PM 38.6678 -109.8994 312° West 379 436 38,000  Level Denver Center
06:11PM 38.7481 -110.0111 313° West 379 436 38,000  Level Denver Center
06:13PM 38.8264 -110.1222 312° West 373 429 38,000  Level Salt Lake Center
06:13PM 38.8942 -110.2167 313° West 379 436 38,000  Level Denver Center
06:14PM 38.9600 -110.3106 312° West 371 427 38,000  Level Denver Center
06:16PM 39.0367 -110.4200 312° West 368 423 38,000  Level Denver Center
06:17PM 39.1036 -110.5158 312° West 372 428 38,000  Level Denver Center
06:18PM 39.1800 -110.6264 312° West 370 426 38,000  Level Salt Lake Center
06:19PM 39.2597 -110.7403 312° West 377 434 38,000  Level Salt Lake Center
06:20PM 39.3275 -110.8381 312° West 380 437 38,000  Level Salt Lake Center
06:21PM 39.4075 -110.9531 312° West 381 438 38,000  Level Salt Lake Center
06:22PM 39.4747 -111.0508 312° West 380 437 38,000  Level Salt Lake Center
06:23PM 39.5522 -111.1647 311° West 378 435 38,000  Level Salt Lake Center
06:24PM 39.6197 -111.2633 312° West 378 435 38,000  Level Salt Lake Center
06:25PM 39.6961 -111.3744 312° West 382 440 38,000  Level Salt Lake Center
06:26PM 39.7664 -111.4792 311° West 384 442 38,000  Level Salt Lake Center
06:27PM 39.8336 -111.5797 311° West 385 443 38,000  Level Salt Lake Center
06:28PM 39.9106 -111.6889 313° West 390 449 38,000  Level Salt Lake Center
06:29PM 39.9797 -111.7944 311° West 384 442 38,000  Level Salt Lake Center
06:30PM 40.0508 -111.8989 312° West 386 444 38,000  Level Salt Lake Center
06:31PM 40.1206 -112.0042 311° West 382 440 38,000  Level Salt Lake Center
06:32PM 40.1903 -112.1083 311° West 380 437 38,000  Level Salt Lake Center
06:33PM 40.2725 -112.2325 311° West 375 432 38,000  Level Salt Lake Center
06:34PM 40.3400 -112.3353 311° West 372 428 38,000  Level Salt Lake Center
06:35PM 40.4067 -112.4367 311° West 368 423 38,000  Level Salt Lake Center
06:36PM 40.4739 -112.5394 311° West 371 427 38,000  Level Salt Lake Center
06:37PM 40.5411 -112.6422 311° West 372 428 38,000  Level Salt Lake Center
06:38PM 40.6089 -112.7458 311° West 373 429 38,000  Level Salt Lake Center
06:39PM 40.6758 -112.8478 311° West 369 425 38,000  Level Salt Lake Center
06:40PM 40.7408 -112.9508 310° West 366 421 38,000  Level Salt Lake Center
06:41PM 40.8069 -113.0522 311° West 364 419 38,000 180 Level Salt Lake Center
06:42PM 40.8847 -113.1739 310° West 362 417 38,400 540 Climbing Salt Lake Center
06:43PM 40.9503 -113.2769 310° West 367 422 39,200 660 Climbing Salt Lake Center
06:44PM 41.0158 -113.3797 310° West 365 420 39,800 360 Climbing Salt Lake Center
06:45PM 41.0822 -113.4861 310° West 372 428 40,000 60 Climbing Salt Lake Center
06:46PM 41.1506 -113.5936 310° West 378 435 40,000  Level Salt Lake Center
06:47PM 41.2175 -113.7011 310° West 378 435 40,000  Level Salt Lake Center
06:49PM 41.2842 -113.8064 310° West 375 432 40,000  Level Salt Lake Center
06:50PM 41.3508 -113.9111 310° West 373 429 40,000  Level Salt Lake Center
06:51PM 41.4303 -114.0386 310° West 373 429 40,000  Level Salt Lake Center
06:52PM 41.4986 -114.1458 310° West 378 435 40,000  Level Salt Lake Center
06:53PM 41.5653 -114.2547 309° West 380 437 40,000  Level Salt Lake Center
06:54PM 41.6317 -114.3614 310° West 375 432 40,000  Level Salt Lake Center
06:55PM 41.6972 -114.4686 309° West 374 430 40,000  Level Salt Lake Center
06:56PM 41.7678 -114.5833 310° West 371 427 40,000  Level Salt Lake Center
06:57PM 41.8308 -114.6864 309° West 373 429 40,000  Level Salt Lake Center
06:58PM 41.9047 -114.8097 309° West 375 432 40,000  Level Salt Lake Center
06:59PM 41.9667 -114.9097 310° West 368 423 40,000  Level Salt Lake Center
07:00PM 42.0394 -115.0289 309° West 369 425 40,000  Level Salt Lake Center
07:01PM 42.0997 -115.1325 308° West 369 425 40,000  Level Salt Lake Center
07:02PM 42.1619 -115.2347 309° West 368 423 40,000  Level Salt Lake Center
07:03PM 42.2342 -115.3556 309° West 369 425 40,000  Level Salt Lake Center
07:04PM 42.2956 -115.4592 309° West 369 425 40,000  Level Salt Lake Center
07:05PM 42.3672 -115.5792 309° West 367 422 40,000  Level Salt Lake Center
07:06PM 42.4281 -115.6842 308° West 369 425 40,000  Level Salt Lake Center
07:07PM 42.4894 -115.7875 309° West 369 425 40,000  Level Salt Lake Center
07:08PM 42.5608 -115.9094 309° West 368 423 40,000  Level Salt Lake Center
07:09PM 42.6211 -116.0133 308° West 366 421 40,000  Level Salt Lake Center
07:10PM 42.6911 -116.1333 308° West 363 418 40,000  Level Salt Lake Center
07:11PM 42.7517 -116.2361 309° West 363 418 40,000  Level Salt Lake Center
07:12PM 42.8211 -116.3583 308° West 366 421 40,000  Level Salt Lake Center
07:13PM 42.8811 -116.4633 308° West 367 422 40,000  Level Salt Lake Center
07:14PM 42.9419 -116.5686 308° West 368 423 40,000  Level Salt Lake Center
07:15PM 43.0128 -116.6931 308° West 370 426 40,000  Level Salt Lake Center
07:16PM 43.0728 -116.7981 308° West 366 421 40,000  Level Salt Lake Center
07:17PM 43.1428 -116.9228 308° West 367 422 40,000  Level Salt Lake Center
07:18PM 43.2031 -117.0289 308° West 366 421 40,000  Level Salt Lake Center
07:19PM 43.2622 -117.1350 307° West 365 420 40,000  Level Salt Lake Center
07:20PM 43.3319 -117.2589 308° West 363 418 40,000  Level Salt Lake Center
07:21PM 43.3917 -117.3656 308° West 363 418 40,000  Level Salt Lake Center
07:22PM 43.4597 -117.4894 307° West 362 417 40,000  Level Salt Lake Center
07:23PM 43.5189 -117.5953 308° West 364 419 40,000  Level Salt Lake Center
07:24PM 43.5781 -117.7006 308° West 364 419 40,000  Level Salt Lake Center
07:25PM 43.6467 -117.8264 307° West 367 422 40,000  Level Salt Lake Center
07:26PM 43.7050 -117.9336 307° West 364 419 40,000  Level Salt Lake Center
07:28PM 43.7728 -118.0575 307° West 362 417 40,000  Level Salt Lake Center
07:29PM 43.8303 -118.1650 307° West 362 417 40,000  Level Salt Lake Center
07:30PM 43.8889 -118.2728 307° West 364 419 40,000  Level Salt Lake Center
07:31PM 43.9586 -118.3992 307° West 366 421 40,000  Level Salt Lake Center
07:32PM 44.0181 -118.5100 307° West 370 426 40,000  Level Salt Lake Center
07:33PM 44.0864 -118.6378 307° West 371 427 40,000  Level Salt Lake Center
07:34PM 44.1442 -118.7475 306° West 368 423 40,000  Level Salt Lake Center
07:35PM 44.1989 -118.8564 305° West 364 419 40,000  Level Seattle Center
07:36PM 44.2556 -118.9650 306° West 362 417 40,000  Level Seattle Center
07:37PM 44.3242 -119.0933 307° West 366 421 40,000  Level Seattle Center
07:38PM 44.3819 -119.2036 306° West 367 422 40,000  Level Seattle Center
07:39PM 44.4436 -119.3181 307° West 371 427 40,000  Level Seattle Center
07:40PM 44.5072 -119.4331 308° West 372 428 40,000  Level Seattle Center
07:41PM 44.5661 -119.5503 305° West 370 426 40,000  Level Seattle Center
07:42PM 44.6261 -119.6681 306° West 372 428 40,000  Level Seattle Center
07:43PM 44.6886 -119.7839 307° West 373 429 40,000  Level Seattle Center
07:44PM 44.7622 -119.9242 306° West 372 428 40,000  Level Seattle Center
07:45PM 44.8247 -120.0406 307° West 375 432 40,000  Level Seattle Center
07:46PM 44.8867 -120.1586 307° West 376 433 40,000 -780 Level Seattle Center
07:47PM 44.9419 -120.2806 303° West 375 432 38,500 -2,040 Descending Seattle Center
07:48PM 44.9956 -120.4061 301° West 375 432 35,900 -2,880 Descending Seattle Center
07:49PM 45.0489 -120.5350 300° West 381 438 32,700 -2,760 Descending Seattle Center
07:50PM 45.1036 -120.6606 302° West 378 435 30,300 -2,220 Descending Seattle Center
07:51PM 45.1669 -120.7650 311° West 355 409 28,200 -2,040 Descending Seattle Center
07:52PM 45.2244 -120.8722 307° West 351 404 26,200 -2,040 Descending Seattle Center
07:53PM 45.2672 -120.9892 297° West 340 391 24,100 -1,860 Descending Seattle Center
07:54PM 45.3086 -121.1050 297° West 332 382 22,500 -1,200 Descending Seattle Center
07:55PM 45.3472 -121.2106 298° West 309 356 21,700 -840 Descending Seattle Center
07:56PM 45.3803 -121.3022 297° West 270 311 20,900 -1,200 Descending Seattle Center
07:57PM 45.4181 -121.4058 297° West 248 285 19,300 -1,380 Descending Seattle Center
07:58PM 45.4469 -121.4847 298° West 238 274 18,100 -1,140 Descending Seattle Center
07:59PM 45.4767 -121.5653 298° West 232 267 17,100 -1,080 Descending Seattle Center
08:00PM 45.4981 -121.5967 314° West 220 253 16,500 -1,620 Descending Seattle Center
08:00PM 45.5119 -121.6364 297° West 249 287 15,500 -2,100 Descending Seattle Center
08:01PM 45.5081 -121.7161 266° West 266 306 14,000 -2,220 Descending Seattle Center
08:01PM 45.5097 -121.7392 276° West 265 305 13,300 -2,280 Descending Seattle Center
08:02PM 45.5103 -121.7989 271° West 277 319 12,200 -2,280 Descending Seattle Center
08:02PM 45.5125 -121.8508 274° West 282 325 11,000 -2,280 Descending Seattle Center
08:03PM 45.5119 -121.9217 269° West 290 334 9,900 -1,980 Descending Seattle Center
08:03PM 45.5128 -121.9642 272° West 288 331 9,000 -1,800 Descending Seattle Center
08:04PM 45.5131 -122.0417 270° West 280 322 7,900 -1,380 Descending Seattle Center
08:04PM 45.5164 -122.0772 278° West 288 331 7,600 -1,320 Descending Seattle Center
08:05PM 45.5125 -122.1439 265° West 277 319 6,700 -1,620 Descending Seattle Center
08:05PM 45.5142 -122.1847 273° West 279 321 6,000 -1,620 Descending Seattle Center
08:06PM 45.5114 -122.2553 267° West 264 304 4,900 -1,620 Descending Seattle Center
08:06PM 45.5144 -122.2878 278° West 268 308 4,400 -1,500 Descending Seattle Center
08:07PM 45.5106 -122.3575 265° West 228 262 3,400 -1,320 Descending Seattle Center
08:07PM 45.5136 -122.3783 282° West 243 280 3,100 -1,080 Descending Seattle Center
08:08PM 45.5297 -122.4297 294° West 163 188 2,200 -1,200 Descending Seattle Center
08:08PM 45.5392 -122.4514 302° West 184 212 1,900 -840 Descending Seattle Center
08:09PM 45.5486 -122.4806 295° West 136 157 1,400 -840 Descending Seattle Center
08:09PM 45.5561 -122.4975 302° West 161 185 1,100 -660 Descending Seattle Center
08:10PM 45.5658 -122.5231 299° West 128 147 800 -720 Descending Seattle Center
08:10PM 45.5731 -122.5400 301° West 143 165 400 -420 Descending Seattle Center
08:11PM 45.5892 -122.5822 299° West 140 161 200 -240 Descending Seattle Center